Kahramanmaraş Airport

LTCN · 卡赫拉曼马拉什省, 土耳其

罗盘
风向 的 风向 090° Kahramanmaraş Airport 7/25
风: 4 kt, 2 beaufort

4 kt

1 kt
改变
0 ft 2.000 4.000 6.000 8.000 10.000
Cloud Cloud
FEW 4.000
Cloud Cloud Cloud Cloud
SCT 10.000
METAR LTCN 032050Z 09004KT 9999 FEW040 SCT100 09/02 Q1016

METAR Kahramanmaraş Airport - LTCN/KCM

Kahramanmaraş Airport是,土耳其中的中型机场。 该机场位于纬度37,53900和经度36,95340。 该机场有一条跑道: 7/25. 本场的ICAO机场代码为LTCN。 该机场的IATA代码为KCM。 机场在Ankara FIR中。

该航空气象观测是针对Kahramanmaraş Airport在2024年3月3日 23:50, 当地时间进行的。

机场观察

风向为090°,速度为4 kt。

可见度为10 km 或者更多。

有几云在4.000 ft的高度 和 疏云,零星散落的云朵在10.000 ft的高度。 没有观察到天花板。

温度为9 °C,阵风为7 °C。 露点为2 °C,相对湿度为62%。 海平面上的气压为1016 hPa (QNH)。

白天

今天,太阳从06:59升起,在18:28降落。 这适用于Kahramanmaraş Airport,世界夏令时可能有所不同。 当地时间与世界标准时间之间的时差为+3 小时。 当前,没有夏令时有效。

公司介绍

我们没有关于这个机场的公司信息。

体会

到Vliegles.nl去找飞行课程,跳伞和其他飞行体验。 浏览页面,了解Kahramanmaraş Airport附近所有可用的活动。 你也可以使用搜索功能来寻找你所在地附近的特定飞行课程、跳伞或其他飞行体验。

跑道

Id 标题 侧风 逆风 侧风 %
7/25 075°-255° 1 kt 4 kt 26 %

逆风成分最大的方向会被突出显示,并用于横风计算。 这并不一定意味着这个方向在使用。

乌云

4.000 ft FEW 几云
10.000 ft SCT 疏云,零星散落的云朵

温度 & 天气

温度 9 °C
露点 2 °C
相对湿度 62%
风寒 7 °C
Kp-index 3 (0-9)

白天

日出
06:59 (6:14)
中午
12:44
日落
18:28

小工具

你想在你的网站上有一个关于Kahramanmaraş Airport的当前航空天气(METAR)的小部件吗?

显示HTML代码
?>